Etusivu
METAR-TAF:

METAR-TAF

Lentoasemat :

Gatineau, Quebec, Kanada

Leveyspiiri: 45-31N, Pituuspiiri: 075-34W, korkeus merenpinnasta: 64 m

Tämänhetkinen sää

Tämä raportti tehtiin 2 tuntia ja 52 minuuttia sitten, kello 02.00 UTC
Tuuli 13 kn idästä/koillisesta
Lämpötila 1°C
Kosteus 100%
Ilmanpaine 1008 hPa
Näkyvyys: 24.1 km
Pilvistä 3000 ft:n korkeudessa
heikkoa sadetta

METAR: CYND 220200Z 07013KT 15SM -RA OVC030 01/01 A2976 RMK SC8 LAST STFD OBS/NEXT 221200 UTC PRESFR SLP081

Aika: 23:52 (04:52 UTC)

Sääennuste

Tämä raportti tehtiin 5 tuntia ja 10 minuuttia sitten, kello 23.42 UTC
Ennuste voimassa 22. päivästä klo 00 UTC - 22. päivään klo 02 UTC
Tuuli 7 kn idästä
Näkyvyys: 10 km
Pilvistä 3000 ft:n korkeudessa
Ajoittain
22. päivästä klo 00 UTC - 22. päivään klo 02 UTC
Näkyvyys: 9.7 km
Pilvistä 2000 ft:n korkeudessa
heikkoa sadetta, utua

TAF: CYND 212342Z 2200/2202 10007KT P6SM OVC030 TEMPO 2200/2202 6SM -RA BR OVC020 RMK NXT FCST WILL BE ISSUED AT 221345Z

Säähavainnot ja -ennusteet yli 4000 lentoasemalta (METAR- ja TAF-raportit).

Käytössä olevat sääasemat on merkitty karttaan keltaisilla ja punaisilla pisteillä.

Aseta hiiri pisteen päälle nähdäksesi sääaseman nimen.

Klikkaa sitten nähdäksesi säähavainnot ja -ennusteet.

Kartan vaihtaminen: klikkaa mustalla rastilla varustettuja vihreitä pisteitä, niin voit zoomata sisään; viivalla varustettua vihreää pistettä, niin voit zoomata ulos tai vihreitä nuolia, niin pääset viereisille kartoille.


METAR-TAF: